Terminal Aerodrome Forecast
Issued by NWS

Home | Current Version | Previous Version | Text Only | Print | Product List | Glossary On
Versions: 1 2 3 4 5 6 7 8 9 10 11 12 13 14 15 16 17 18 19 20 21 22 23 24
226
FTAK31 PANC 231132
TAFADU
TAF
PADU 231132Z 2312/2412 30040G60KT 5SM -SHRASN BR BKN025 OVC035
     FM232100 31035G45KT P6SM -SHRASN BKN035=

USA.gov is the U.S. government's official web portal to all federal, state and local government web resources and services.